sensor_id;sensor_type;location;lat;lon;timestamp;P1;durP1;ratioP1;P2;durP2;ratioP2
77880;SDS011;67077;50.298;18.996;2024-03-23T00:52:35;47.40;;;25.90;;
77880;SDS011;67077;50.298;18.996;2024-03-23T00:56:00;49.60;;;26.30;;
77880;SDS011;67077;50.298;18.996;2024-03-23T00:59:00;49.80;;;26.80;;
77880;SDS011;67077;50.298;18.996;2024-03-23T01:04:18;52.10;;;27.60;;
77880;SDS011;67077;50.298;18.996;2024-03-23T01:07:33;54.00;;;28.00;;
77880;SDS011;67077;50.298;18.996;2024-03-23T01:10:32;51.30;;;27.80;;
77880;SDS011;67077;50.298;18.996;2024-03-23T01:17:50;52.00;;;26.50;;
77880;SDS011;67077;50.298;18.996;2024-03-23T01:20:31;52.90;;;27.50;;
77880;SDS011;67077;50.298;18.996;2024-03-23T01:23:18;52.50;;;27.20;;
77880;SDS011;67077;50.298;18.996;2024-03-23T01:25:53;52.80;;;27.30;;
77880;SDS011;67077;50.298;18.996;2024-03-23T01:28:27;57.70;;;26.90;;
77880;SDS011;67077;50.298;18.996;2024-03-23T01:30:58;53.00;;;27.50;;
77880;SDS011;67077;50.298;18.996;2024-03-23T01:33:32;49.10;;;26.10;;
77880;SDS011;67077;50.298;18.996;2024-03-23T01:36:19;55.40;;;27.10;;
77880;SDS011;67077;50.298;18.996;2024-03-23T01:38:52;58.40;;;28.30;;
77880;SDS011;67077;50.298;18.996;2024-03-23T01:41:34;50.80;;;26.60;;
77880;SDS011;67077;50.298;18.996;2024-03-23T01:44:27;50.60;;;26.50;;
77880;SDS011;67077;50.298;18.996;2024-03-23T01:47:05;52.90;;;27.80;;
77880;SDS011;67077;50.298;18.996;2024-03-23T01:49:33;49.80;;;26.50;;
77880;SDS011;67077;50.298;18.996;2024-03-23T01:52:02;50.00;;;26.50;;
77880;SDS011;67077;50.298;18.996;2024-03-23T01:57:28;47.50;;;25.40;;
77880;SDS011;67077;50.298;18.996;2024-03-23T02:00:13;46.90;;;24.90;;
77880;SDS011;67077;50.298;18.996;2024-03-23T02:02:46;44.70;;;25.20;;
77880;SDS011;67077;50.298;18.996;2024-03-23T02:05:17;43.30;;;23.40;;
77880;SDS011;67077;50.298;18.996;2024-03-23T02:07:44;45.80;;;24.20;;
77880;SDS011;67077;50.298;18.996;2024-03-23T02:10:23;41.00;;;23.70;;
77880;SDS011;67077;50.298;18.996;2024-03-23T02:13:01;46.60;;;23.80;;
77880;SDS011;67077;50.298;18.996;2024-03-23T02:18:00;44.00;;;23.50;;
77880;SDS011;67077;50.298;18.996;2024-03-23T02:20:28;43.20;;;23.50;;
77880;SDS011;67077;50.298;18.996;2024-03-23T02:22:57;47.90;;;25.00;;
77880;SDS011;67077;50.298;18.996;2024-03-23T02:25:35;45.50;;;24.60;;
77880;SDS011;67077;50.298;18.996;2024-03-23T02:28:01;45.40;;;24.80;;
77880;SDS011;67077;50.298;18.996;2024-03-23T02:30:30;45.70;;;25.60;;
77880;SDS011;67077;50.298;18.996;2024-03-23T02:35:56;46.10;;;25.50;;
77880;SDS011;67077;50.298;18.996;2024-03-23T02:38:29;44.70;;;24.10;;
77880;SDS011;67077;50.298;18.996;2024-03-23T02:41:07;44.00;;;23.90;;
77880;SDS011;67077;50.298;18.996;2024-03-23T02:43:53;45.50;;;24.30;;
77880;SDS011;67077;50.298;18.996;2024-03-23T02:46:32;44.40;;;24.70;;
77880;SDS011;67077;50.298;18.996;2024-03-23T02:49:10;45.00;;;24.80;;
77880;SDS011;67077;50.298;18.996;2024-03-23T02:51:38;45.70;;;25.80;;
77880;SDS011;67077;50.298;18.996;2024-03-23T02:54:07;47.40;;;26.50;;
77880;SDS011;67077;50.298;18.996;2024-03-23T02:56:34;46.70;;;25.20;;
77880;SDS011;67077;50.298;18.996;2024-03-23T02:59:09;48.60;;;26.80;;
77880;SDS011;67077;50.298;18.996;2024-03-23T03:01:37;48.70;;;27.80;;
77880;SDS011;67077;50.298;18.996;2024-03-23T03:04:10;55.60;;;32.80;;
77880;SDS011;67077;50.298;18.996;2024-03-23T03:06:36;55.20;;;30.70;;
77880;SDS011;67077;50.298;18.996;2024-03-23T03:09:03;53.70;;;29.30;;
77880;SDS011;67077;50.298;18.996;2024-03-23T03:11:31;54.30;;;29.80;;
77880;SDS011;67077;50.298;18.996;2024-03-23T03:13:57;51.80;;;28.20;;
77880;SDS011;67077;50.298;18.996;2024-03-23T03:16:26;52.10;;;27.20;;
77880;SDS011;67077;50.298;18.996;2024-03-23T03:18:53;50.90;;;25.90;;
77880;SDS011;67077;50.298;18.996;2024-03-23T03:24:08;49.70;;;26.20;;
77880;SDS011;67077;50.298;18.996;2024-03-23T03:26:37;52.30;;;26.50;;
77880;SDS011;67077;50.298;18.996;2024-03-23T03:29:11;53.00;;;27.90;;
77880;SDS011;67077;50.298;18.996;2024-03-23T03:32:31;48.80;;;26.00;;
77880;SDS011;67077;50.298;18.996;2024-03-23T03:35:19;52.70;;;27.60;;
77880;SDS011;67077;50.298;18.996;2024-03-23T03:37:53;53.70;;;28.90;;
77880;SDS011;67077;50.298;18.996;2024-03-23T03:40:22;55.00;;;27.40;;
77880;SDS011;67077;50.298;18.996;2024-03-23T03:42:55;49.00;;;26.90;;
77880;SDS011;67077;50.298;18.996;2024-03-23T03:45:39;53.50;;;27.10;;
77880;SDS011;67077;50.298;18.996;2024-03-23T03:48:09;50.60;;;27.20;;
77880;SDS011;67077;50.298;18.996;2024-03-23T03:51:07;49.40;;;27.20;;
77880;SDS011;67077;50.298;18.996;2024-03-23T03:53:37;49.60;;;26.50;;
77880;SDS011;67077;50.298;18.996;2024-03-23T03:56:23;54.40;;;27.40;;
77880;SDS011;67077;50.298;18.996;2024-03-23T03:59:07;51.50;;;27.20;;
77880;SDS011;67077;50.298;18.996;2024-03-23T04:02:44;51.10;;;28.40;;
77880;SDS011;67077;50.298;18.996;2024-03-23T04:05:29;52.50;;;29.10;;
77880;SDS011;67077;50.298;18.996;2024-03-23T04:08:07;53.70;;;28.30;;
77880;SDS011;67077;50.298;18.996;2024-03-23T04:10:37;53.50;;;29.20;;
77880;SDS011;67077;50.298;18.996;2024-03-23T04:13:13;52.60;;;28.50;;
77880;SDS011;67077;50.298;18.996;2024-03-23T04:16:41;47.80;;;26.90;;
77880;SDS011;67077;50.298;18.996;2024-03-23T04:19:14;49.90;;;26.60;;
77880;SDS011;67077;50.298;18.996;2024-03-23T04:21:49;56.00;;;29.10;;
77880;SDS011;67077;50.298;18.996;2024-03-23T04:24:24;48.80;;;26.60;;
77880;SDS011;67077;50.298;18.996;2024-03-23T04:27:19;50.20;;;27.80;;
77880;SDS011;67077;50.298;18.996;2024-03-23T04:29:47;47.10;;;26.00;;
77880;SDS011;67077;50.298;18.996;2024-03-23T04:32:16;49.50;;;25.40;;
77880;SDS011;67077;50.298;18.996;2024-03-23T04:34:54;45.70;;;25.00;;
77880;SDS011;67077;50.298;18.996;2024-03-23T04:37:20;44.00;;;24.60;;
77880;SDS011;67077;50.298;18.996;2024-03-23T04:39:47;49.40;;;25.90;;
77880;SDS011;67077;50.298;18.996;2024-03-23T04:42:14;50.50;;;25.90;;
77880;SDS011;67077;50.298;18.996;2024-03-23T04:44:43;46.40;;;25.80;;
77880;SDS011;67077;50.298;18.996;2024-03-23T04:47:17;44.00;;;25.30;;
77880;SDS011;67077;50.298;18.996;2024-03-23T04:49:44;46.90;;;25.20;;
77880;SDS011;67077;50.298;18.996;2024-03-23T04:52:11;45.10;;;24.40;;
77880;SDS011;67077;50.298;18.996;2024-03-23T04:54:56;47.10;;;25.40;;
77880;SDS011;67077;50.298;18.996;2024-03-23T04:57:24;44.90;;;24.60;;
77880;SDS011;67077;50.298;18.996;2024-03-23T04:59:51;45.10;;;25.10;;
77880;SDS011;67077;50.298;18.996;2024-03-23T05:02:18;44.80;;;24.40;;
77880;SDS011;67077;50.298;18.996;2024-03-23T05:04:47;45.50;;;24.10;;
77880;SDS011;67077;50.298;18.996;2024-03-23T05:07:45;45.10;;;23.60;;
77880;SDS011;67077;50.298;18.996;2024-03-23T05:10:12;39.50;;;22.10;;
77880;SDS011;67077;50.298;18.996;2024-03-23T05:12:43;37.70;;;21.90;;
77880;SDS011;67077;50.298;18.996;2024-03-23T05:15:18;38.40;;;21.30;;
77880;SDS011;67077;50.298;18.996;2024-03-23T05:17:55;35.70;;;20.60;;
77880;SDS011;67077;50.298;18.996;2024-03-23T05:21:00;34.80;;;19.20;;
77880;SDS011;67077;50.298;18.996;2024-03-23T05:23:58;33.80;;;18.80;;
77880;SDS011;67077;50.298;18.996;2024-03-23T05:26:30;34.30;;;19.00;;
77880;SDS011;67077;50.298;18.996;2024-03-23T05:29:08;34.10;;;20.50;;
77880;SDS011;67077;50.298;18.996;2024-03-23T05:31:37;32.40;;;18.70;;
77880;SDS011;67077;50.298;18.996;2024-03-23T05:34:04;31.80;;;18.80;;
77880;SDS011;67077;50.298;18.996;2024-03-23T05:36:50;31.70;;;18.00;;
77880;SDS011;67077;50.298;18.996;2024-03-23T05:39:24;30.20;;;18.70;;
77880;SDS011;67077;50.298;18.996;2024-03-23T05:41:51;30.70;;;18.00;;
77880;SDS011;67077;50.298;18.996;2024-03-23T05:44:21;30.70;;;18.30;;
77880;SDS011;67077;50.298;18.996;2024-03-23T05:46:48;29.80;;;18.20;;
77880;SDS011;67077;50.298;18.996;2024-03-23T05:49:22;31.40;;;18.30;;
77880;SDS011;67077;50.298;18.996;2024-03-23T05:51:51;28.30;;;16.90;;
77880;SDS011;67077;50.298;18.996;2024-03-23T05:54:29;29.10;;;17.40;;
77880;SDS011;67077;50.298;18.996;2024-03-23T05:56:59;27.60;;;17.00;;
77880;SDS011;67077;50.298;18.996;2024-03-23T05:59:27;29.90;;;17.70;;
77880;SDS011;67077;50.298;18.996;2024-03-23T06:01:54;28.50;;;16.60;;
77880;SDS011;67077;50.298;18.996;2024-03-23T06:04:28;28.30;;;16.80;;
77880;SDS011;67077;50.298;18.996;2024-03-23T06:06:55;23.60;;;15.60;;
77880;SDS011;67077;50.298;18.996;2024-03-23T06:09:30;26.10;;;16.10;;
77880;SDS011;67077;50.298;18.996;2024-03-23T06:11:58;28.10;;;15.70;;
77880;SDS011;67077;50.298;18.996;2024-03-23T06:14:24;26.80;;;15.70;;
77880;SDS011;67077;50.298;18.996;2024-03-23T06:16:51;25.90;;;15.90;;
77880;SDS011;67077;50.298;18.996;2024-03-23T06:19:18;26.20;;;15.00;;
77880;SDS011;67077;50.298;18.996;2024-03-23T06:25:12;22.20;;;13.50;;
77880;SDS011;67077;50.298;18.996;2024-03-23T06:27:59;23.20;;;13.90;;
77880;SDS011;67077;50.298;18.996;2024-03-23T06:30:31;21.80;;;13.70;;
77880;SDS011;67077;50.298;18.996;2024-03-23T06:33:12;20.10;;;13.40;;
77880;SDS011;67077;50.298;18.996;2024-03-23T06:35:57;21.50;;;13.00;;
77880;SDS011;67077;50.298;18.996;2024-03-23T06:39:00;19.60;;;12.20;;
77880;SDS011;67077;50.298;18.996;2024-03-23T06:45:06;21.00;;;12.60;;
77880;SDS011;67077;50.298;18.996;2024-03-23T06:48:03;22.60;;;12.80;;
77880;SDS011;67077;50.298;18.996;2024-03-23T06:50:30;19.70;;;12.10;;
77880;SDS011;67077;50.298;18.996;2024-03-23T06:52:57;19.70;;;12.60;;
77880;SDS011;67077;50.298;18.996;2024-03-23T06:55:24;20.00;;;12.50;;
77880;SDS011;67077;50.298;18.996;2024-03-23T06:57:53;18.60;;;11.70;;
77880;SDS011;67077;50.298;18.996;2024-03-23T07:00:20;17.30;;;11.40;;
77880;SDS011;67077;50.298;18.996;2024-03-23T07:02:55;20.00;;;11.80;;
77880;SDS011;67077;50.298;18.996;2024-03-23T07:05:22;18.80;;;11.80;;
77880;SDS011;67077;50.298;18.996;2024-03-23T07:07:49;20.80;;;12.00;;
77880;SDS011;67077;50.298;18.996;2024-03-23T07:12:47;20.30;;;10.70;;
77880;SDS011;67077;50.298;18.996;2024-03-23T07:15:15;17.90;;;11.30;;
77880;SDS011;67077;50.298;18.996;2024-03-23T07:17:42;18.20;;;11.60;;
77880;SDS011;67077;50.298;18.996;2024-03-23T07:20:16;17.20;;;10.40;;
77880;SDS011;67077;50.298;18.996;2024-03-23T07:22:45;18.20;;;11.50;;
77880;SDS011;67077;50.298;18.996;2024-03-23T07:25:12;17.90;;;11.00;;
77880;SDS011;67077;50.298;18.996;2024-03-23T07:27:39;18.70;;;11.00;;
77880;SDS011;67077;50.298;18.996;2024-03-23T07:30:13;19.00;;;11.40;;
77880;SDS011;67077;50.298;18.996;2024-03-23T07:32:58;16.90;;;10.90;;
77880;SDS011;67077;50.298;18.996;2024-03-23T07:35:38;16.50;;;10.70;;
77880;SDS011;67077;50.298;18.996;2024-03-23T07:42:35;16.60;;;10.50;;
77880;SDS011;67077;50.298;18.996;2024-03-23T07:54:37;19.50;;;11.90;;
77880;SDS011;67077;50.298;18.996;2024-03-23T07:57:30;19.40;;;11.70;;
77880;SDS011;67077;50.298;18.996;2024-03-23T08:00:37;18.70;;;11.00;;
77880;SDS011;67077;50.298;18.996;2024-03-23T08:03:37;17.20;;;11.10;;
77880;SDS011;67077;50.298;18.996;2024-03-23T08:06:07;20.00;;;10.50;;
77880;SDS011;67077;50.298;18.996;2024-03-23T08:08:38;20.30;;;10.60;;
77880;SDS011;67077;50.298;18.996;2024-03-23T08:11:06;20.50;;;10.00;;
77880;SDS011;67077;50.298;18.996;2024-03-23T08:13:42;17.20;;;10.60;;
77880;SDS011;67077;50.298;18.996;2024-03-23T08:16:12;15.50;;;10.10;;
77880;SDS011;67077;50.298;18.996;2024-03-23T08:18:40;23.90;;;11.40;;
77880;SDS011;67077;50.298;18.996;2024-03-23T08:21:08;16.50;;;10.90;;
77880;SDS011;67077;50.298;18.996;2024-03-23T08:23:35;17.30;;;10.50;;
77880;SDS011;67077;50.298;18.996;2024-03-23T08:26:12;16.20;;;10.10;;
77880;SDS011;67077;50.298;18.996;2024-03-23T08:28:56;17.10;;;10.60;;
77880;SDS011;67077;50.298;18.996;2024-03-23T08:31:23;17.70;;;10.50;;
77880;SDS011;67077;50.298;18.996;2024-03-23T08:33:50;19.80;;;9.20;;
77880;SDS011;67077;50.298;18.996;2024-03-23T08:36:19;17.90;;;9.30;;
77880;SDS011;67077;50.298;18.996;2024-03-23T08:38:59;14.40;;;9.00;;
77880;SDS011;67077;50.298;18.996;2024-03-23T08:41:27;15.40;;;8.50;;
77880;SDS011;67077;50.298;18.996;2024-03-23T08:43:53;15.40;;;8.50;;
77880;SDS011;67077;50.298;18.996;2024-03-23T08:46:20;16.10;;;8.80;;
77880;SDS011;67077;50.298;18.996;2024-03-23T08:48:46;14.60;;;7.80;;
77880;SDS011;67077;50.298;18.996;2024-03-23T08:51:15;13.80;;;7.80;;
77880;SDS011;67077;50.298;18.996;2024-03-23T08:53:43;16.70;;;8.30;;
77880;SDS011;67077;50.298;18.996;2024-03-23T08:56:10;13.50;;;8.30;;
77880;SDS011;67077;50.298;18.996;2024-03-23T08:58:37;13.00;;;8.10;;
77880;SDS011;67077;50.298;18.996;2024-03-23T09:03:35;14.20;;;8.60;;
77880;SDS011;67077;50.298;18.996;2024-03-23T09:06:08;16.60;;;9.20;;
77880;SDS011;67077;50.298;18.996;2024-03-23T09:08:38;14.50;;;8.40;;
77880;SDS011;67077;50.298;18.996;2024-03-23T09:11:05;15.00;;;9.30;;
77880;SDS011;67077;50.298;18.996;2024-03-23T09:13:33;13.90;;;8.40;;
77880;SDS011;67077;50.298;18.996;2024-03-23T09:16:01;15.20;;;8.40;;
77880;SDS011;67077;50.298;18.996;2024-03-23T09:18:31;15.20;;;8.30;;
77880;SDS011;67077;50.298;18.996;2024-03-23T09:20:58;11.30;;;7.80;;
77880;SDS011;67077;50.298;18.996;2024-03-23T09:23:28;13.50;;;8.00;;
77880;SDS011;67077;50.298;18.996;2024-03-23T09:25:55;14.10;;;7.60;;
77880;SDS011;67077;50.298;18.996;2024-03-23T09:28:22;11.40;;;7.40;;
77880;SDS011;67077;50.298;18.996;2024-03-23T09:30:48;13.90;;;7.70;;
77880;SDS011;67077;50.298;18.996;2024-03-23T09:33:15;12.10;;;7.70;;
77880;SDS011;67077;50.298;18.996;2024-03-23T09:35:43;12.00;;;7.10;;
77880;SDS011;67077;50.298;18.996;2024-03-23T09:38:17;14.00;;;7.40;;
77880;SDS011;67077;50.298;18.996;2024-03-23T09:40:59;11.90;;;7.70;;
77880;SDS011;67077;50.298;18.996;2024-03-23T09:43:41;14.40;;;7.90;;
77880;SDS011;67077;50.298;18.996;2024-03-23T09:46:12;11.40;;;7.10;;
77880;SDS011;67077;50.298;18.996;2024-03-23T09:48:57;13.30;;;7.30;;
77880;SDS011;67077;50.298;18.996;2024-03-23T09:51:24;12.20;;;7.30;;
77880;SDS011;67077;50.298;18.996;2024-03-23T09:53:50;12.10;;;7.20;;
77880;SDS011;67077;50.298;18.996;2024-03-23T09:56:18;11.10;;;7.30;;
77880;SDS011;67077;50.298;18.996;2024-03-23T09:58:45;12.00;;;6.70;;
77880;SDS011;67077;50.298;18.996;2024-03-23T10:01:11;15.50;;;7.70;;
77880;SDS011;67077;50.298;18.996;2024-03-23T10:03:44;11.50;;;7.00;;
77880;SDS011;67077;50.298;18.996;2024-03-23T10:06:12;12.20;;;7.50;;
77880;SDS011;67077;50.298;18.996;2024-03-23T10:08:39;11.90;;;7.50;;
77880;SDS011;67077;50.298;18.996;2024-03-23T10:11:12;10.80;;;6.60;;
77880;SDS011;67077;50.298;18.996;2024-03-23T10:13:42;14.60;;;8.00;;
77880;SDS011;67077;50.298;18.996;2024-03-23T10:16:10;12.10;;;7.00;;
77880;SDS011;67077;50.298;18.996;2024-03-23T10:18:37;10.70;;;6.90;;
77880;SDS011;67077;50.298;18.996;2024-03-23T10:23:46;12.40;;;6.40;;
77880;SDS011;67077;50.298;18.996;2024-03-23T10:26:22;8.80;;;5.50;;
77880;SDS011;67077;50.298;18.996;2024-03-23T10:28:59;11.10;;;6.30;;
77880;SDS011;67077;50.298;18.996;2024-03-23T10:31:27;11.50;;;6.50;;
77880;SDS011;67077;50.298;18.996;2024-03-23T10:33:55;10.70;;;6.60;;
77880;SDS011;67077;50.298;18.996;2024-03-23T10:36:22;10.10;;;6.00;;
77880;SDS011;67077;50.298;18.996;2024-03-23T10:38:54;10.90;;;5.90;;
77880;SDS011;67077;50.298;18.996;2024-03-23T10:41:21;8.70;;;5.70;;
77880;SDS011;67077;50.298;18.996;2024-03-23T10:43:48;12.20;;;6.00;;
77880;SDS011;67077;50.298;18.996;2024-03-23T10:46:24;9.30;;;5.10;;
77880;SDS011;67077;50.298;18.996;2024-03-23T10:48:51;7.90;;;5.40;;
77880;SDS011;67077;50.298;18.996;2024-03-23T10:51:18;10.50;;;6.00;;
77880;SDS011;67077;50.298;18.996;2024-03-23T10:53:45;11.70;;;5.60;;
77880;SDS011;67077;50.298;18.996;2024-03-23T10:56:19;10.40;;;5.80;;
77880;SDS011;67077;50.298;18.996;2024-03-23T10:58:54;10.60;;;5.60;;
77880;SDS011;67077;50.298;18.996;2024-03-23T11:01:31;8.60;;;5.50;;
77880;SDS011;67077;50.298;18.996;2024-03-23T11:03:58;8.50;;;4.90;;
77880;SDS011;67077;50.298;18.996;2024-03-23T11:06:38;7.70;;;5.20;;
77880;SDS011;67077;50.298;18.996;2024-03-23T11:12:27;9.60;;;5.90;;
77880;SDS011;67077;50.298;18.996;2024-03-23T11:15:21;7.30;;;4.70;;
77880;SDS011;67077;50.298;18.996;2024-03-23T11:18:03;6.60;;;4.10;;
77880;SDS011;67077;50.298;18.996;2024-03-23T11:20:35;10.70;;;4.30;;
77880;SDS011;67077;50.298;18.996;2024-03-23T11:23:34;6.60;;;4.00;;
77880;SDS011;67077;50.298;18.996;2024-03-23T11:26:01;6.10;;;4.00;;
77880;SDS011;67077;50.298;18.996;2024-03-23T11:28:27;8.20;;;4.70;;
77880;SDS011;67077;50.298;18.996;2024-03-23T11:30:54;8.80;;;4.90;;
77880;SDS011;67077;50.298;18.996;2024-03-23T11:33:20;9.30;;;5.00;;
77880;SDS011;67077;50.298;18.996;2024-03-23T11:35:47;9.80;;;5.20;;
77880;SDS011;67077;50.298;18.996;2024-03-23T11:38:14;9.10;;;4.80;;
77880;SDS011;67077;50.298;18.996;2024-03-23T11:40:48;9.80;;;5.30;;
77880;SDS011;67077;50.298;18.996;2024-03-23T11:43:19;10.70;;;5.20;;
77880;SDS011;67077;50.298;18.996;2024-03-23T11:45:48;9.70;;;5.00;;
77880;SDS011;67077;50.298;18.996;2024-03-23T11:48:24;7.40;;;4.60;;
77880;SDS011;67077;50.298;18.996;2024-03-23T11:50:57;9.30;;;4.80;;
77880;SDS011;67077;50.298;18.996;2024-03-23T11:53:25;6.00;;;4.20;;
77880;SDS011;67077;50.298;18.996;2024-03-23T11:55:55;8.00;;;3.90;;
77880;SDS011;67077;50.298;18.996;2024-03-23T11:58:23;6.40;;;3.40;;
77880;SDS011;67077;50.298;18.996;2024-03-23T12:03:25;6.30;;;3.10;;
77880;SDS011;67077;50.298;18.996;2024-03-23T12:06:05;4.00;;;2.70;;
77880;SDS011;67077;50.298;18.996;2024-03-23T12:08:34;5.90;;;2.60;;
77880;SDS011;67077;50.298;18.996;2024-03-23T12:13:39;3.70;;;2.70;;
77880;SDS011;67077;50.298;18.996;2024-03-23T12:19:16;4.30;;;2.50;;
77880;SDS011;67077;50.298;18.996;2024-03-23T12:21:44;5.00;;;2.70;;
77880;SDS011;67077;50.298;18.996;2024-03-23T12:24:11;3.50;;;2.70;;
77880;SDS011;67077;50.298;18.996;2024-03-23T12:26:37;4.40;;;2.50;;
77880;SDS011;67077;50.298;18.996;2024-03-23T12:29:05;3.80;;;2.60;;
77880;SDS011;67077;50.298;18.996;2024-03-23T12:31:32;3.10;;;2.30;;
77880;SDS011;67077;50.298;18.996;2024-03-23T12:33:58;5.70;;;2.30;;
77880;SDS011;67077;50.298;18.996;2024-03-23T12:36:25;4.10;;;2.20;;
77880;SDS011;67077;50.298;18.996;2024-03-23T12:38:51;5.00;;;2.00;;
77880;SDS011;67077;50.298;18.996;2024-03-23T12:41:25;4.20;;;1.80;;
77880;SDS011;67077;50.298;18.996;2024-03-23T12:43:53;3.70;;;1.80;;
77880;SDS011;67077;50.298;18.996;2024-03-23T12:46:27;7.60;;;2.10;;
77880;SDS011;67077;50.298;18.996;2024-03-23T12:48:53;3.50;;;1.80;;
77880;SDS011;67077;50.298;18.996;2024-03-23T12:51:32;3.60;;;1.90;;
77880;SDS011;67077;50.298;18.996;2024-03-23T12:53:59;5.90;;;2.10;;
77880;SDS011;67077;50.298;18.996;2024-03-23T12:56:26;3.10;;;1.90;;
77880;SDS011;67077;50.298;18.996;2024-03-23T12:58:59;4.00;;;2.20;;
77880;SDS011;67077;50.298;18.996;2024-03-23T13:01:27;4.90;;;1.70;;
77880;SDS011;67077;50.298;18.996;2024-03-23T13:03:53;5.20;;;1.80;;
77880;SDS011;67077;50.298;18.996;2024-03-23T13:06:20;2.60;;;1.80;;
77880;SDS011;67077;50.298;18.996;2024-03-23T13:09:07;3.70;;;2.10;;
77880;SDS011;67077;50.298;18.996;2024-03-23T13:11:39;4.40;;;2.20;;
77880;SDS011;67077;50.298;18.996;2024-03-23T13:14:05;5.40;;;2.20;;
77880;SDS011;67077;50.298;18.996;2024-03-23T13:16:35;3.20;;;2.00;;
77880;SDS011;67077;50.298;18.996;2024-03-23T13:19:56;2.80;;;2.00;;
77880;SDS011;67077;50.298;18.996;2024-03-23T13:22:26;5.60;;;2.30;;
77880;SDS011;67077;50.298;18.996;2024-03-23T13:24:52;4.60;;;2.10;;
77880;SDS011;67077;50.298;18.996;2024-03-23T13:27:19;4.00;;;2.10;;
77880;SDS011;67077;50.298;18.996;2024-03-23T13:29:46;3.30;;;2.10;;
77880;SDS011;67077;50.298;18.996;2024-03-23T13:32:18;3.00;;;2.00;;
77880;SDS011;67077;50.298;18.996;2024-03-23T13:34:52;3.50;;;2.20;;
77880;SDS011;67077;50.298;18.996;2024-03-23T13:38:37;5.60;;;2.60;;
77880;SDS011;67077;50.298;18.996;2024-03-23T13:41:11;13.70;;;2.50;;
77880;SDS011;67077;50.298;18.996;2024-03-23T13:43:39;14.00;;;2.10;;
77880;SDS011;67077;50.298;18.996;2024-03-23T13:46:06;13.20;;;3.70;;
77880;SDS011;67077;50.298;18.996;2024-03-23T13:48:33;17.60;;;4.30;;
77880;SDS011;67077;50.298;18.996;2024-03-23T13:51:00;5.70;;;2.50;;
77880;SDS011;67077;50.298;18.996;2024-03-23T13:53:31;7.40;;;2.40;;
77880;SDS011;67077;50.298;18.996;2024-03-23T13:56:00;5.20;;;2.60;;
77880;SDS011;67077;50.298;18.996;2024-03-23T13:58:27;6.30;;;2.20;;
77880;SDS011;67077;50.298;18.996;2024-03-23T14:00:55;8.10;;;3.20;;
77880;SDS011;67077;50.298;18.996;2024-03-23T14:03:24;7.40;;;3.20;;
77880;SDS011;67077;50.298;18.996;2024-03-23T14:05:51;5.80;;;2.60;;
77880;SDS011;67077;50.298;18.996;2024-03-23T14:08:19;6.00;;;2.60;;
77880;SDS011;67077;50.298;18.996;2024-03-23T14:10:47;5.30;;;2.80;;
77880;SDS011;67077;50.298;18.996;2024-03-23T14:13:14;5.70;;;2.70;;
77880;SDS011;67077;50.298;18.996;2024-03-23T14:15:41;5.50;;;2.60;;
77880;SDS011;67077;50.298;18.996;2024-03-23T14:18:08;6.90;;;3.20;;
77880;SDS011;67077;50.298;18.996;2024-03-23T14:20:34;7.00;;;3.60;;
77880;SDS011;67077;50.298;18.996;2024-03-23T14:23:01;7.30;;;3.90;;
77880;SDS011;67077;50.298;18.996;2024-03-23T14:25:28;5.50;;;2.70;;
77880;SDS011;67077;50.298;18.996;2024-03-23T14:27:56;6.80;;;2.90;;
77880;SDS011;67077;50.298;18.996;2024-03-23T14:30:24;5.80;;;2.50;;
77880;SDS011;67077;50.298;18.996;2024-03-23T14:32:51;4.90;;;2.80;;
77880;SDS011;67077;50.298;18.996;2024-03-23T14:35:17;4.90;;;2.80;;
77880;SDS011;67077;50.298;18.996;2024-03-23T14:37:44;5.60;;;3.70;;
77880;SDS011;67077;50.298;18.996;2024-03-23T14:40:13;9.90;;;4.00;;
77880;SDS011;67077;50.298;18.996;2024-03-23T14:42:40;7.00;;;4.30;;
77880;SDS011;67077;50.298;18.996;2024-03-23T14:45:07;8.10;;;4.40;;
77880;SDS011;67077;50.298;18.996;2024-03-23T14:47:34;6.40;;;4.20;;
77880;SDS011;67077;50.298;18.996;2024-03-23T14:50:01;6.50;;;3.90;;
77880;SDS011;67077;50.298;18.996;2024-03-23T14:52:29;7.20;;;4.10;;
77880;SDS011;67077;50.298;18.996;2024-03-23T14:54:55;8.10;;;4.10;;
77880;SDS011;67077;50.298;18.996;2024-03-23T14:57:23;9.90;;;5.10;;
77880;SDS011;67077;50.298;18.996;2024-03-23T14:59:49;9.40;;;5.10;;
77880;SDS011;67077;50.298;18.996;2024-03-23T15:02:16;8.30;;;5.10;;
77880;SDS011;67077;50.298;18.996;2024-03-23T15:04:48;9.70;;;5.60;;
77880;SDS011;67077;50.298;18.996;2024-03-23T15:07:20;9.90;;;5.20;;
77880;SDS011;67077;50.298;18.996;2024-03-23T15:09:46;12.50;;;5.50;;
77880;SDS011;67077;50.298;18.996;2024-03-23T15:12:13;9.80;;;5.80;;
77880;SDS011;67077;50.298;18.996;2024-03-23T15:14:39;8.50;;;4.70;;
77880;SDS011;67077;50.298;18.996;2024-03-23T15:17:06;10.20;;;5.00;;
77880;SDS011;67077;50.298;18.996;2024-03-23T15:19:34;9.20;;;5.20;;
77880;SDS011;67077;50.298;18.996;2024-03-23T15:22:00;10.70;;;5.20;;
77880;SDS011;67077;50.298;18.996;2024-03-23T15:24:27;10.70;;;5.00;;
77880;SDS011;67077;50.298;18.996;2024-03-23T15:26:53;10.50;;;4.40;;
77880;SDS011;67077;50.298;18.996;2024-03-23T15:29:23;7.90;;;3.70;;
77880;SDS011;67077;50.298;18.996;2024-03-23T15:31:49;6.10;;;3.30;;
77880;SDS011;67077;50.298;18.996;2024-03-23T15:34:19;6.20;;;3.20;;
77880;SDS011;67077;50.298;18.996;2024-03-23T15:36:48;6.80;;;3.40;;
77880;SDS011;67077;50.298;18.996;2024-03-23T15:39:17;5.60;;;3.20;;
77880;SDS011;67077;50.298;18.996;2024-03-23T15:41:46;6.00;;;3.70;;
77880;SDS011;67077;50.298;18.996;2024-03-23T15:44:13;6.30;;;3.80;;
77880;SDS011;67077;50.298;18.996;2024-03-23T15:46:40;8.30;;;4.20;;
77880;SDS011;67077;50.298;18.996;2024-03-23T15:49:09;9.10;;;4.90;;
77880;SDS011;67077;50.298;18.996;2024-03-23T15:51:36;10.00;;;5.00;;
77880;SDS011;67077;50.298;18.996;2024-03-23T15:54:03;9.40;;;6.00;;
77880;SDS011;67077;50.298;18.996;2024-03-23T15:56:30;12.80;;;6.30;;
77880;SDS011;67077;50.298;18.996;2024-03-23T15:58:56;11.00;;;7.10;;
77880;SDS011;67077;50.298;18.996;2024-03-23T16:01:31;14.30;;;7.00;;
77880;SDS011;67077;50.298;18.996;2024-03-23T16:04:01;11.70;;;7.60;;
77880;SDS011;67077;50.298;18.996;2024-03-23T16:06:27;16.00;;;7.80;;
77880;SDS011;67077;50.298;18.996;2024-03-23T16:08:54;12.70;;;7.60;;
77880;SDS011;67077;50.298;18.996;2024-03-23T16:11:20;12.70;;;7.50;;
77880;SDS011;67077;50.298;18.996;2024-03-23T16:13:47;13.40;;;7.70;;
77880;SDS011;67077;50.298;18.996;2024-03-23T16:16:14;14.40;;;8.20;;
77880;SDS011;67077;50.298;18.996;2024-03-23T16:18:42;14.50;;;7.60;;
77880;SDS011;67077;50.298;18.996;2024-03-23T16:21:10;14.30;;;8.00;;
77880;SDS011;67077;50.298;18.996;2024-03-23T16:23:37;23.90;;;15.50;;
77880;SDS011;67077;50.298;18.996;2024-03-23T16:26:04;19.20;;;12.60;;
77880;SDS011;67077;50.298;18.996;2024-03-23T16:28:31;16.60;;;11.10;;
77880;SDS011;67077;50.298;18.996;2024-03-23T16:31:00;23.00;;;16.40;;
77880;SDS011;67077;50.298;18.996;2024-03-23T16:33:32;20.70;;;14.50;;
77880;SDS011;67077;50.298;18.996;2024-03-23T16:36:00;31.30;;;23.00;;
77880;SDS011;67077;50.298;18.996;2024-03-23T16:38:27;35.00;;;25.80;;
77880;SDS011;67077;50.298;18.996;2024-03-23T16:40:54;34.60;;;24.60;;